createdAt,value
2023-01-19T00:02:19.015Z,2.72
2023-01-19T00:04:49.438Z,2.55
2023-01-19T00:07:20.832Z,2.53
2023-01-19T00:09:51.341Z,2.72
2023-01-19T00:12:21.307Z,2.47
2023-01-19T00:14:51.565Z,2.60
2023-01-19T00:17:22.043Z,2.55
2023-01-19T00:19:52.659Z,2.38
2023-01-19T00:22:24.379Z,2.47
2023-01-19T00:24:54.960Z,2.35
2023-01-19T00:27:25.493Z,2.33
2023-01-19T00:29:55.762Z,2.35
2023-01-19T00:32:27.549Z,2.13
2023-01-19T00:34:59.028Z,2.13
2023-01-19T00:37:31.667Z,3.03
2023-01-19T00:40:02.210Z,2.10
2023-01-19T00:42:44.924Z,2.40
2023-01-19T00:45:20.301Z,2.30
2023-01-19T00:47:57.554Z,2.08
2023-01-19T00:50:30.045Z,3.03
2023-01-19T00:53:03.750Z,2.13
2023-01-19T00:55:35.475Z,2.33
2023-01-19T00:58:05.519Z,2.03
2023-01-19T01:00:36.100Z,1.95
2023-01-19T01:03:07.023Z,2.05
2023-01-19T01:05:37.354Z,2.10
2023-01-19T01:08:09.630Z,2.05
2023-01-19T01:10:39.355Z,4.30
2023-01-19T01:13:21.241Z,2.28
2023-01-19T01:15:53.441Z,2.17
2023-01-19T01:18:24.598Z,1.85
2023-01-19T01:20:56.243Z,2.13
2023-01-19T01:23:28.450Z,1.98
2023-01-19T01:26:01.123Z,2.05
2023-01-19T01:28:32.107Z,2.10
2023-01-19T01:31:02.133Z,2.08
2023-01-19T01:33:40.496Z,1.98
2023-01-19T01:36:13.140Z,2.00
2023-01-19T01:38:44.862Z,2.28
2023-01-19T01:41:15.561Z,2.00
2023-01-19T01:43:49.599Z,2.30
2023-01-19T01:46:20.643Z,2.38
2023-01-19T01:49:00.231Z,1.88
2023-01-19T01:51:37.181Z,2.10
2023-01-19T01:54:19.144Z,2.30
2023-01-19T01:56:52.828Z,2.38
2023-01-19T01:59:30.285Z,1.88
2023-01-19T02:02:24.815Z,1.90
2023-01-19T02:05:01.149Z,1.75
2023-01-19T02:08:01.506Z,2.28
2023-01-19T02:10:50.959Z,1.98
2023-01-19T02:13:23.066Z,1.80
2023-01-19T02:15:56.211Z,1.77
2023-01-19T02:18:34.487Z,2.00
2023-01-19T02:21:14.862Z,2.38
2023-01-19T02:23:50.471Z,1.90
2023-01-19T02:26:25.685Z,1.90
2023-01-19T02:29:01.931Z,1.67
2023-01-19T02:31:35.442Z,1.80
2023-01-19T02:34:07.847Z,1.80
2023-01-19T02:36:43.987Z,1.75
2023-01-19T02:39:20.105Z,2.00
2023-01-19T02:41:56.636Z,1.98
2023-01-19T02:44:30.343Z,1.60
2023-01-19T02:47:01.099Z,1.90
2023-01-19T02:49:32.122Z,2.08
2023-01-19T02:52:05.129Z,1.90
2023-01-19T02:54:54.664Z,1.92
2023-01-19T02:57:52.357Z,2.13
2023-01-19T03:00:39.739Z,1.80
2023-01-19T03:03:28.468Z,1.95
2023-01-19T03:06:09.525Z,4.10
2023-01-19T03:08:55.416Z,1.90
2023-01-19T03:11:35.869Z,1.98
2023-01-19T03:14:15.228Z,2.00
2023-01-19T03:16:49.999Z,1.80
2023-01-19T03:19:27.669Z,1.80
2023-01-19T03:22:02.528Z,1.75
2023-01-19T03:24:39.404Z,1.80
2023-01-19T03:27:15.755Z,1.70
2023-01-19T03:29:53.367Z,1.90
2023-01-19T03:32:31.032Z,1.92
2023-01-19T03:35:08.132Z,2.00
2023-01-19T03:37:44.359Z,1.70
2023-01-19T03:40:16.331Z,1.77
2023-01-19T03:42:49.675Z,1.95
2023-01-19T03:45:22.195Z,1.80
2023-01-19T03:47:52.812Z,1.90
2023-01-19T03:50:30.093Z,1.77
2023-01-19T03:53:11.400Z,2.15
2023-01-19T03:55:45.438Z,1.95
2023-01-19T03:58:18.199Z,2.03
2023-01-19T04:00:48.792Z,1.83
2023-01-19T04:03:20.998Z,1.80
2023-01-19T04:05:51.342Z,2.00
2023-01-19T04:08:21.687Z,1.95
2023-01-19T04:10:52.294Z,2.20
2023-01-19T04:13:24.653Z,2.08
2023-01-19T04:15:55.160Z,2.30
2023-01-19T04:18:25.835Z,2.00
2023-01-19T04:20:56.294Z,1.83
2023-01-19T04:23:26.529Z,2.00
2023-01-19T04:26:00.606Z,1.98
2023-01-19T04:28:32.453Z,1.83
2023-01-19T04:31:02.589Z,2.20
2023-01-19T04:33:32.962Z,2.30
2023-01-19T04:36:04.429Z,2.45
2023-01-19T04:38:35.107Z,2.40
2023-01-19T04:41:05.176Z,2.20
2023-01-19T04:43:38.323Z,2.63
2023-01-19T04:46:09.371Z,2.38
2023-01-19T04:48:41.409Z,2.22
2023-01-19T04:51:12.456Z,2.17
2023-01-19T04:53:42.864Z,2.05
2023-01-19T04:56:13.335Z,3.00
2023-01-19T04:58:45.401Z,2.30
2023-01-19T05:01:15.518Z,2.00
2023-01-19T05:03:45.830Z,1.90
2023-01-19T05:06:15.618Z,2.03
2023-01-19T05:08:45.654Z,2.30
2023-01-19T05:11:16.248Z,2.30
2023-01-19T05:13:50.201Z,2.15
2023-01-19T05:16:20.881Z,2.08
2023-01-19T05:18:51.614Z,1.95
2023-01-19T05:21:21.844Z,2.22
2023-01-19T05:23:52.237Z,2.38
2023-01-19T05:26:22.705Z,2.13
2023-01-19T05:28:55.009Z,2.33
2023-01-19T05:31:25.521Z,1.92
2023-01-19T05:33:55.419Z,2.63
2023-01-19T05:36:25.352Z,2.60
2023-01-19T05:38:55.018Z,2.42
2023-01-19T05:41:24.955Z,2.20
2023-01-19T05:43:56.979Z,2.67
2023-01-19T05:46:27.474Z,3.10
2023-01-19T05:48:57.718Z,2.72
2023-01-19T05:51:32.303Z,2.38
2023-01-19T05:54:03.419Z,2.10
2023-01-19T05:56:33.685Z,2.78
2023-01-19T05:59:06.293Z,3.28
2023-01-19T06:01:39.670Z,2.15
2023-01-19T06:04:10.418Z,2.13
2023-01-19T06:06:40.631Z,2.10
2023-01-19T06:09:11.166Z,2.42
2023-01-19T06:11:41.795Z,2.55
2023-01-19T06:14:14.876Z,2.65
2023-01-19T06:16:45.320Z,2.30
2023-01-19T06:19:15.791Z,2.33
2023-01-19T06:21:50.436Z,2.35
2023-01-19T06:24:21.563Z,2.95
2023-01-19T06:26:52.102Z,2.20
2023-01-19T06:29:24.907Z,2.22
2023-01-19T06:31:56.096Z,2.10
2023-01-19T06:34:29.233Z,2.40
2023-01-19T06:37:00.109Z,2.75
2023-01-19T06:39:30.621Z,2.15
2023-01-19T06:42:01.063Z,2.00
2023-01-19T06:44:33.577Z,2.00
2023-01-19T06:47:14.963Z,2.95
2023-01-19T06:49:46.089Z,2.08
2023-01-19T06:52:17.891Z,2.10
2023-01-19T06:54:48.615Z,2.20
2023-01-19T06:57:19.770Z,2.40
2023-01-19T06:59:52.146Z,2.20
2023-01-19T07:02:26.179Z,2.28
2023-01-19T07:04:58.677Z,2.10
2023-01-19T07:07:29.724Z,2.72
2023-01-19T07:10:00.339Z,2.08
2023-01-19T07:12:30.975Z,2.10
2023-01-19T07:15:03.181Z,2.20
2023-01-19T07:17:33.981Z,2.50
2023-01-19T07:20:04.496Z,2.05
2023-01-19T07:22:34.829Z,3.45
2023-01-19T07:25:05.428Z,2.95
2023-01-19T07:27:36.150Z,2.10
2023-01-19T07:30:10.666Z,2.10
2023-01-19T07:32:43.044Z,2.25
2023-01-19T07:35:14.887Z,1.77
2023-01-19T07:37:45.348Z,1.80
2023-01-19T07:40:16.562Z,2.28
2023-01-19T07:42:50.829Z,3.20
2023-01-19T07:45:24.387Z,1.90
2023-01-19T07:47:54.739Z,2.15
2023-01-19T07:50:28.192Z,2.42
2023-01-19T07:52:59.673Z,1.88
2023-01-19T07:55:30.053Z,2.08
2023-01-19T07:58:00.463Z,2.60
2023-01-19T08:00:33.488Z,1.88
2023-01-19T08:03:05.437Z,2.00
2023-01-19T08:05:37.649Z,2.58
2023-01-19T08:08:08.953Z,1.48
2023-01-19T08:10:39.534Z,1.80
2023-01-19T08:13:09.361Z,1.80
2023-01-19T08:15:44.314Z,1.60
2023-01-19T08:18:16.155Z,1.65
2023-01-19T08:20:46.878Z,1.52
2023-01-19T08:23:18.932Z,1.70
2023-01-19T08:25:49.536Z,2.97
2023-01-19T08:28:20.716Z,1.52
2023-01-19T08:30:57.181Z,1.60
2023-01-19T08:33:28.520Z,1.48
2023-01-19T08:35:58.654Z,1.60
2023-01-19T08:38:28.574Z,2.92
2023-01-19T08:40:59.121Z,1.58
2023-01-19T08:43:29.646Z,1.17
2023-01-19T08:46:02.517Z,1.13
2023-01-19T08:48:33.025Z,1.48
2023-01-19T08:51:03.185Z,1.30
2023-01-19T08:53:33.640Z,1.92
2023-01-19T08:56:04.229Z,1.35
2023-01-19T08:58:34.560Z,1.30
2023-01-19T09:01:07.238Z,1.08
2023-01-19T09:03:38.149Z,1.20
2023-01-19T09:06:09.523Z,1.60
2023-01-19T09:08:39.664Z,1.38
2023-01-19T09:11:13.244Z,1.30
2023-01-19T09:13:44.006Z,1.10
2023-01-19T09:16:16.517Z,1.08
2023-01-19T09:18:46.941Z,1.20
2023-01-19T09:21:17.084Z,1.60
2023-01-19T09:23:47.661Z,1.25
2023-01-19T09:26:18.009Z,1.27
2023-01-19T09:28:47.931Z,1.15
2023-01-19T09:31:20.571Z,1.75
2023-01-19T09:33:50.667Z,1.05
2023-01-19T09:36:20.990Z,0.90
2023-01-19T09:38:51.072Z,1.20
2023-01-19T09:41:25.502Z,1.00
2023-01-19T09:44:01.631Z,0.82
2023-01-19T09:46:41.928Z,1.00
2023-01-19T09:49:18.461Z,1.23
2023-01-19T09:51:53.034Z,1.23
2023-01-19T09:54:31.725Z,1.25
2023-01-19T09:57:02.168Z,1.33
2023-01-19T09:59:34.931Z,1.20
2023-01-19T10:02:34.093Z,0.85
2023-01-19T10:05:06.587Z,1.17
2023-01-19T10:07:56.915Z,0.82
2023-01-19T10:10:30.983Z,0.93
2023-01-19T10:13:32.184Z,1.20
2023-01-19T10:16:27.603Z,1.10
2023-01-19T10:19:05.789Z,1.00
2023-01-19T10:21:45.058Z,1.75
2023-01-19T10:24:25.246Z,1.33
2023-01-19T10:26:58.332Z,0.95
2023-01-19T10:29:35.657Z,1.05
2023-01-19T10:32:12.083Z,0.90
2023-01-19T10:34:44.280Z,0.90
2023-01-19T10:37:30.894Z,1.25
2023-01-19T10:40:21.682Z,1.05
2023-01-19T10:42:52.399Z,1.30
2023-01-19T10:45:26.391Z,0.90
2023-01-19T10:48:02.240Z,1.27
2023-01-19T10:50:37.493Z,1.10
2023-01-19T10:53:09.158Z,1.30
2023-01-19T10:55:43.104Z,1.80
2023-01-19T10:58:31.085Z,1.20
2023-01-19T11:01:19.279Z,1.27
2023-01-19T11:03:49.696Z,0.90
2023-01-19T11:06:36.771Z,1.10
2023-01-19T11:09:20.097Z,1.02
2023-01-19T11:11:54.408Z,1.08
2023-01-19T11:14:27.638Z,1.02
2023-01-19T11:16:59.971Z,1.15
2023-01-19T11:19:34.046Z,1.02
2023-01-19T11:22:23.087Z,0.68
2023-01-19T11:24:53.512Z,1.15
2023-01-19T11:27:24.959Z,1.92
2023-01-19T11:30:10.135Z,1.33
2023-01-19T11:32:40.552Z,1.10
2023-01-19T11:35:36.361Z,1.08
2023-01-19T11:38:23.597Z,1.00
2023-01-19T11:41:00.304Z,0.98
2023-01-19T11:43:48.325Z,1.10
2023-01-19T11:46:21.241Z,1.50
2023-01-19T11:49:02.308Z,1.02
2023-01-19T11:51:43.434Z,0.80
2023-01-19T11:54:26.052Z,1.10
2023-01-19T11:57:01.353Z,0.90
2023-01-19T11:59:32.053Z,0.82
2023-01-19T12:02:07.810Z,0.90
2023-01-19T12:04:44.823Z,0.82
2023-01-19T12:07:19.320Z,1.10
2023-01-19T12:09:58.966Z,1.30
2023-01-19T12:12:33.204Z,1.50
2023-01-19T12:15:10.906Z,0.95
2023-01-19T12:17:50.588Z,1.30
2023-01-19T12:20:32.322Z,0.85
2023-01-19T12:23:24.139Z,1.00
2023-01-19T12:26:35.866Z,0.80
2023-01-19T12:29:15.753Z,0.80
2023-01-19T12:31:46.771Z,0.80
2023-01-19T12:34:43.303Z,1.55
2023-01-19T12:37:38.027Z,1.58
2023-01-19T12:40:27.252Z,1.30
2023-01-19T12:43:05.738Z,1.38
2023-01-19T12:45:40.016Z,0.90
2023-01-19T12:48:29.724Z,1.20
2023-01-19T12:51:00.220Z,1.10
2023-01-19T12:53:31.403Z,1.02
2023-01-19T12:56:06.758Z,0.90
2023-01-19T12:58:39.323Z,1.42
2023-01-19T13:01:20.638Z,2.40
2023-01-19T13:04:07.590Z,1.27
2023-01-19T13:07:19.744Z,1.40
2023-01-19T13:09:50.081Z,1.38
2023-01-19T13:12:26.462Z,1.10
2023-01-19T13:15:37.738Z,1.23
2023-01-19T13:18:11.482Z,1.98
2023-01-19T13:20:53.133Z,0.85
2023-01-19T13:23:30.240Z,1.30
2023-01-19T13:26:09.439Z,1.08
2023-01-19T13:28:45.884Z,1.10
2023-01-19T13:31:19.605Z,1.17
2023-01-19T13:33:55.126Z,1.40
2023-01-19T13:36:32.362Z,1.02
2023-01-19T13:39:07.700Z,1.42
2023-01-19T13:41:43.890Z,1.25
2023-01-19T13:44:24.335Z,0.90
2023-01-19T13:47:00.188Z,1.17
2023-01-19T13:49:35.842Z,1.02
2023-01-19T13:52:25.333Z,1.13
2023-01-19T13:55:01.260Z,1.10
2023-01-19T13:57:34.868Z,1.98
2023-01-19T14:00:17.872Z,0.88
2023-01-19T14:03:01.043Z,1.05
2023-01-19T14:05:34.602Z,0.82
2023-01-19T14:08:09.236Z,0.80
2023-01-19T14:10:42.436Z,1.20
2023-01-19T14:13:19.811Z,1.10
2023-01-19T14:15:54.311Z,0.80
2023-01-19T14:18:32.532Z,1.20
2023-01-19T14:21:06.800Z,1.00
2023-01-19T14:23:49.644Z,0.85
2023-01-19T14:26:46.044Z,0.90
2023-01-19T14:29:25.967Z,0.68
2023-01-19T14:32:14.419Z,1.23
2023-01-19T14:34:48.682Z,1.58
2023-01-19T14:37:27.096Z,1.60
2023-01-19T14:40:05.006Z,2.20
2023-01-19T14:42:40.104Z,1.20
2023-01-19T14:45:20.703Z,1.58
2023-01-19T14:48:00.205Z,1.05
2023-01-19T14:50:36.694Z,1.58
2023-01-19T14:53:10.533Z,1.13
2023-01-19T14:55:49.108Z,1.92
2023-01-19T14:58:23.221Z,1.10
2023-01-19T15:00:56.160Z,0.95
2023-01-19T15:03:42.637Z,1.38
2023-01-19T15:06:19.724Z,0.90
2023-01-19T15:08:51.305Z,1.40
2023-01-19T15:11:29.272Z,1.77
2023-01-19T15:14:00.527Z,1.75
2023-01-19T15:16:40.049Z,2.00
2023-01-19T15:19:15.268Z,1.98
2023-01-19T15:21:47.413Z,1.58
2023-01-19T15:24:18.480Z,2.03
2023-01-19T15:26:49.401Z,3.05
2023-01-19T15:29:27.767Z,2.58
2023-01-19T15:31:58.039Z,2.30
2023-01-19T15:34:28.578Z,1.90
2023-01-19T15:37:00.443Z,1.50
2023-01-19T15:39:31.005Z,1.40
2023-01-19T15:42:01.352Z,1.25
2023-01-19T15:44:32.623Z,1.30
2023-01-19T15:47:02.592Z,0.98
2023-01-19T15:49:32.866Z,1.55
2023-01-19T15:52:04.738Z,1.25
2023-01-19T15:54:35.125Z,1.10
2023-01-19T15:57:05.854Z,0.75
2023-01-19T15:59:36.385Z,1.40
2023-01-19T16:02:06.450Z,1.20
2023-01-19T16:04:37.078Z,1.23
2023-01-19T16:07:09.463Z,1.73
2023-01-19T16:09:40.760Z,1.17
2023-01-19T16:12:10.849Z,1.08
2023-01-19T16:14:41.288Z,1.60
2023-01-19T16:17:11.726Z,1.27
2023-01-19T16:19:41.794Z,1.52
2023-01-19T16:22:13.722Z,1.48
2023-01-19T16:24:44.035Z,1.27
2023-01-19T16:27:14.875Z,1.75
2023-01-19T16:29:45.419Z,1.25
2023-01-19T16:32:17.009Z,1.33
2023-01-19T16:34:47.738Z,2.83
2023-01-19T16:37:20.475Z,1.08
2023-01-19T16:39:53.154Z,1.55
2023-01-19T16:42:23.552Z,1.95
2023-01-19T16:44:55.087Z,2.15
2023-01-19T16:47:25.739Z,2.50
2023-01-19T16:49:56.441Z,2.92
2023-01-19T16:52:28.414Z,2.53
2023-01-19T16:54:58.569Z,1.75
2023-01-19T16:57:29.324Z,3.25
2023-01-19T16:59:59.871Z,3.47
2023-01-19T17:02:30.456Z,2.65
2023-01-19T17:05:01.199Z,3.72
2023-01-19T17:07:33.769Z,3.70
2023-01-19T17:10:04.320Z,4.85
2023-01-19T17:12:33.995Z,2.55
2023-01-19T17:15:03.912Z,2.05
2023-01-19T17:17:35.479Z,1.80
2023-01-19T17:20:05.998Z,2.72
2023-01-19T17:22:38.748Z,4.40
2023-01-19T17:25:10.881Z,3.20
2023-01-19T17:27:41.040Z,3.22
2023-01-19T17:30:13.458Z,3.92
2023-01-19T17:32:44.430Z,1.90
2023-01-19T17:35:15.525Z,2.47
2023-01-19T17:37:47.721Z,2.10
2023-01-19T17:40:18.781Z,3.22
2023-01-19T17:42:49.144Z,2.13
2023-01-19T17:45:19.690Z,2.00
2023-01-19T17:47:51.934Z,2.45
2023-01-19T17:50:22.507Z,2.47
2023-01-19T17:52:54.480Z,2.33
2023-01-19T17:55:24.846Z,2.42
2023-01-19T17:57:54.798Z,3.22
2023-01-19T18:00:25.783Z,3.13
2023-01-19T18:02:55.865Z,2.95
2023-01-19T18:05:26.749Z,1.92
2023-01-19T18:08:00.584Z,2.85
2023-01-19T18:10:30.697Z,2.80
2023-01-19T18:13:00.556Z,2.08
2023-01-19T18:15:30.341Z,1.92
2023-01-19T18:17:59.960Z,2.20
2023-01-19T18:20:31.893Z,2.22
2023-01-19T18:23:03.859Z,3.42
2023-01-19T18:25:34.753Z,3.40
2023-01-19T18:28:06.486Z,2.65
2023-01-19T18:30:40.265Z,1.95
2023-01-19T18:33:11.001Z,3.50
2023-01-19T18:35:43.105Z,2.85
2023-01-19T18:38:16.083Z,2.15
2023-01-19T18:40:47.192Z,2.67
2023-01-19T18:43:17.608Z,2.17
2023-01-19T18:45:50.310Z,2.70
2023-01-19T18:48:20.863Z,2.83
2023-01-19T18:50:51.402Z,2.10
2023-01-19T18:53:24.087Z,2.95
2023-01-19T18:55:56.054Z,3.05
2023-01-19T18:58:28.964Z,3.40
2023-01-19T19:01:00.005Z,2.50
2023-01-19T19:03:31.200Z,4.70
2023-01-19T19:06:05.836Z,2.80
2023-01-19T19:08:38.805Z,4.93
2023-01-19T19:11:13.367Z,4.93
2023-01-19T19:13:44.977Z,3.22
2023-01-19T19:16:16.017Z,3.05
2023-01-19T19:18:46.146Z,3.50
2023-01-19T19:21:16.435Z,4.10
2023-01-19T19:23:54.484Z,3.17
2023-01-19T19:26:26.156Z,2.80
2023-01-19T19:28:57.243Z,3.88
2023-01-19T19:31:28.214Z,3.13
2023-01-19T19:34:01.316Z,3.58
2023-01-19T19:36:32.287Z,3.70
2023-01-19T19:39:05.136Z,3.83
2023-01-19T19:41:38.801Z,2.55
2023-01-19T19:44:09.280Z,3.08
2023-01-19T19:46:40.984Z,4.30
2023-01-19T19:49:11.279Z,3.25
2023-01-19T19:51:41.255Z,4.13
2023-01-19T19:54:13.741Z,3.20
2023-01-19T19:56:44.900Z,6.03
2023-01-19T19:59:15.425Z,3.33
2023-01-19T20:01:47.712Z,3.53
2023-01-19T20:04:20.727Z,3.15
2023-01-19T20:06:51.646Z,4.85
2023-01-19T20:09:24.126Z,3.42
2023-01-19T20:11:54.304Z,4.88
2023-01-19T20:14:25.740Z,3.25
2023-01-19T20:16:55.652Z,2.90
2023-01-19T20:19:27.913Z,4.07
2023-01-19T20:21:58.507Z,4.07
2023-01-19T20:24:31.192Z,3.67
2023-01-19T20:27:01.660Z,3.63
2023-01-19T20:29:32.197Z,3.33
2023-01-19T20:32:03.063Z,5.22
2023-01-19T20:34:36.132Z,3.33
2023-01-19T20:37:06.657Z,4.20
2023-01-19T20:39:38.739Z,4.20
2023-01-19T20:42:11.673Z,3.92
2023-01-19T20:44:42.800Z,4.30
2023-01-19T20:47:13.486Z,3.90
2023-01-19T20:49:43.573Z,4.40
2023-01-19T20:52:13.990Z,4.00
2023-01-19T20:54:46.352Z,4.85
2023-01-19T20:57:16.948Z,4.72
2023-01-19T20:59:47.576Z,3.55
2023-01-19T21:02:18.010Z,4.15
2023-01-19T21:04:48.127Z,4.25
2023-01-19T21:07:17.856Z,3.53
2023-01-19T21:09:49.836Z,3.97
2023-01-19T21:12:21.963Z,3.75
2023-01-19T21:14:52.272Z,4.25
2023-01-19T21:17:22.679Z,4.07
2023-01-19T21:19:53.296Z,6.30
2023-01-19T21:22:23.919Z,3.50
2023-01-19T21:24:56.478Z,3.60
2023-01-19T21:27:27.053Z,3.58
2023-01-19T21:29:59.594Z,4.40
2023-01-19T21:32:29.624Z,5.40
2023-01-19T21:34:59.990Z,3.88
2023-01-19T21:37:32.156Z,3.08
2023-01-19T21:40:04.512Z,2.97
2023-01-19T21:42:34.739Z,2.72
2023-01-19T21:45:04.505Z,3.10
2023-01-19T21:47:36.698Z,2.67
2023-01-19T21:50:07.906Z,2.85
2023-01-19T21:52:39.517Z,3.72
2023-01-19T21:55:13.593Z,3.30
2023-01-19T21:57:43.795Z,3.53
2023-01-19T22:00:14.494Z,2.95
2023-01-19T22:02:49.448Z,3.80
2023-01-19T22:05:28.808Z,3.03
2023-01-19T22:07:59.351Z,4.63
2023-01-19T22:10:31.905Z,2.83
2023-01-19T22:13:02.146Z,3.50
2023-01-19T22:15:32.801Z,2.55
2023-01-19T22:18:04.578Z,2.70
2023-01-19T22:20:39.777Z,3.25
2023-01-19T22:23:10.039Z,3.28
2023-01-19T22:25:42.560Z,2.80
2023-01-19T22:28:12.943Z,3.20
2023-01-19T22:30:44.003Z,2.80
2023-01-19T22:33:14.548Z,2.80
2023-01-19T22:35:44.769Z,2.78
2023-01-19T22:38:15.568Z,2.65
2023-01-19T22:40:48.561Z,2.60
2023-01-19T22:43:18.921Z,3.47
2023-01-19T22:45:48.977Z,3.10
2023-01-19T22:48:18.846Z,3.78
2023-01-19T22:50:49.807Z,2.50
2023-01-19T22:53:20.454Z,2.55
2023-01-19T22:55:52.480Z,2.35
2023-01-19T22:58:23.053Z,2.75
2023-01-19T23:00:53.235Z,2.40
2023-01-19T23:03:23.280Z,2.50
2023-01-19T23:05:54.453Z,2.58
2023-01-19T23:08:25.225Z,2.40
2023-01-19T23:10:57.764Z,3.30
2023-01-19T23:13:27.590Z,2.88
2023-01-19T23:15:59.700Z,3.08
2023-01-19T23:18:30.472Z,2.70
2023-01-19T23:21:07.791Z,3.10
2023-01-19T23:23:38.759Z,2.25
2023-01-19T23:26:14.403Z,3.15
2023-01-19T23:28:45.454Z,2.47
2023-01-19T23:31:22.798Z,2.38
2023-01-19T23:33:54.699Z,3.25
2023-01-19T23:36:26.526Z,2.63
2023-01-19T23:38:59.109Z,3.10
2023-01-19T23:41:35.070Z,2.63
2023-01-19T23:44:06.255Z,2.63
2023-01-19T23:46:36.849Z,2.55
2023-01-19T23:49:07.516Z,2.60
2023-01-19T23:51:38.027Z,2.40
2023-01-19T23:54:08.686Z,2.67
2023-01-19T23:56:43.184Z,2.35
2023-01-19T23:59:15.348Z,2.35
